sensor_id;sensor_type;location;lat;lon;timestamp;P1;durP1;ratioP1;P2;durP2;ratioP2
10166;SDS011;62970;53.130;8.244;2024-02-28T04:13:44;23.57;;;14.20;;
10166;SDS011;62970;53.130;8.244;2024-02-28T12:53:03;15.43;;;11.17;;
10166;SDS011;62970;53.130;8.244;2024-02-28T12:58:04;20.60;;;15.93;;
10166;SDS011;62970;53.130;8.244;2024-02-28T13:00:33;22.13;;;16.70;;
10166;SDS011;62970;53.130;8.244;2024-02-28T13:03:03;25.63;;;18.10;;
10166;SDS011;62970;53.130;8.244;2024-02-28T13:05:32;22.80;;;17.07;;
10166;SDS011;62970;53.130;8.244;2024-02-28T13:08:05;20.33;;;16.97;;
10166;SDS011;62970;53.130;8.244;2024-02-28T13:10:35;22.30;;;16.67;;
10166;SDS011;62970;53.130;8.244;2024-02-28T13:13:06;22.33;;;17.90;;
10166;SDS011;62970;53.130;8.244;2024-02-28T13:15:35;20.73;;;17.23;;
10166;SDS011;62970;53.130;8.244;2024-02-28T13:18:05;23.43;;;17.43;;
10166;SDS011;62970;53.130;8.244;2024-02-28T13:20:36;22.57;;;18.13;;
10166;SDS011;62970;53.130;8.244;2024-02-28T13:23:08;19.57;;;16.53;;
10166;SDS011;62970;53.130;8.244;2024-02-28T13:25:37;22.47;;;17.10;;
10166;SDS011;62970;53.130;8.244;2024-02-28T13:28:10;21.77;;;17.10;;
10166;SDS011;62970;53.130;8.244;2024-02-28T13:30:41;18.27;;;16.30;;
10166;SDS011;62970;53.130;8.244;2024-02-28T13:33:10;19.33;;;15.47;;
10166;SDS011;62970;53.130;8.244;2024-02-28T13:35:41;20.00;;;16.53;;
10166;SDS011;62970;53.130;8.244;2024-02-28T13:38:13;19.37;;;16.10;;
10166;SDS011;62970;53.130;8.244;2024-02-28T13:40:42;20.57;;;17.10;;
10166;SDS011;62970;53.130;8.244;2024-02-28T13:43:12;19.87;;;16.63;;
10166;SDS011;62970;53.130;8.244;2024-02-28T13:45:46;20.00;;;16.37;;
10166;SDS011;62970;53.130;8.244;2024-02-28T13:48:16;21.07;;;16.50;;
10166;SDS011;62970;53.130;8.244;2024-02-28T13:50:49;20.10;;;15.73;;
10166;SDS011;62970;53.130;8.244;2024-02-28T13:53:23;18.70;;;15.07;;
10166;SDS011;62970;53.130;8.244;2024-02-28T13:55:53;18.47;;;15.63;;
10166;SDS011;62970;53.130;8.244;2024-02-28T13:58:22;19.63;;;15.20;;
10166;SDS011;62970;53.130;8.244;2024-02-28T14:00:51;21.87;;;16.23;;
10166;SDS011;62970;53.130;8.244;2024-02-28T14:03:22;19.87;;;16.43;;
10166;SDS011;62970;53.130;8.244;2024-02-28T14:05:53;19.80;;;15.87;;
10166;SDS011;62970;53.130;8.244;2024-02-28T14:08:24;20.27;;;15.57;;
10166;SDS011;62970;53.130;8.244;2024-02-28T14:10:54;19.83;;;15.57;;
10166;SDS011;62970;53.130;8.244;2024-02-28T14:13:24;20.47;;;15.47;;
10166;SDS011;62970;53.130;8.244;2024-02-28T14:15:53;20.67;;;16.17;;
10166;SDS011;62970;53.130;8.244;2024-02-28T14:18:22;18.27;;;14.23;;
10166;SDS011;62970;53.130;8.244;2024-02-28T14:20:52;19.70;;;15.53;;
10166;SDS011;62970;53.130;8.244;2024-02-28T14:23:21;18.57;;;15.40;;
10166;SDS011;62970;53.130;8.244;2024-02-28T14:25:53;17.50;;;14.57;;
10166;SDS011;62970;53.130;8.244;2024-02-28T14:28:23;19.13;;;15.37;;
10166;SDS011;62970;53.130;8.244;2024-02-28T14:30:52;19.23;;;15.13;;
10166;SDS011;62970;53.130;8.244;2024-02-28T14:33:21;18.37;;;14.87;;
10166;SDS011;62970;53.130;8.244;2024-02-28T14:35:51;18.27;;;14.70;;
10166;SDS011;62970;53.130;8.244;2024-02-28T14:38:20;17.57;;;14.87;;
10166;SDS011;62970;53.130;8.244;2024-02-28T14:40:51;18.93;;;15.37;;
10166;SDS011;62970;53.130;8.244;2024-02-28T14:43:22;17.53;;;14.63;;
10166;SDS011;62970;53.130;8.244;2024-02-28T14:45:55;16.73;;;14.93;;
10166;SDS011;62970;53.130;8.244;2024-02-28T14:48:24;16.10;;;14.27;;
10166;SDS011;62970;53.130;8.244;2024-02-28T14:50:54;17.80;;;15.03;;
10166;SDS011;62970;53.130;8.244;2024-02-28T14:53:23;18.97;;;15.37;;
10166;SDS011;62970;53.130;8.244;2024-02-28T14:55:57;16.77;;;14.57;;
10166;SDS011;62970;53.130;8.244;2024-02-28T14:58:26;17.70;;;14.10;;
10166;SDS011;62970;53.130;8.244;2024-02-28T15:00:55;16.27;;;14.33;;
10166;SDS011;62970;53.130;8.244;2024-02-28T15:03:28;15.33;;;12.53;;
10166;SDS011;62970;53.130;8.244;2024-02-28T15:06:01;16.83;;;14.33;;
10166;SDS011;62970;53.130;8.244;2024-02-28T15:08:34;16.50;;;13.90;;
10166;SDS011;62970;53.130;8.244;2024-02-28T15:11:05;17.07;;;14.13;;
10166;SDS011;62970;53.130;8.244;2024-02-28T15:13:35;16.73;;;13.93;;
10166;SDS011;62970;53.130;8.244;2024-02-28T15:16:08;17.97;;;14.57;;
10166;SDS011;62970;53.130;8.244;2024-02-28T15:18:37;17.43;;;14.80;;
10166;SDS011;62970;53.130;8.244;2024-02-28T15:21:08;19.57;;;15.27;;
10166;SDS011;62970;53.130;8.244;2024-02-28T15:23:37;18.23;;;15.20;;
10166;SDS011;62970;53.130;8.244;2024-02-28T15:26:09;20.27;;;15.83;;
10166;SDS011;62970;53.130;8.244;2024-02-28T15:28:40;20.40;;;17.10;;
10166;SDS011;62970;53.130;8.244;2024-02-28T15:31:09;22.03;;;17.03;;
10166;SDS011;62970;53.130;8.244;2024-02-28T15:33:40;17.93;;;15.60;;
10166;SDS011;62970;53.130;8.244;2024-02-28T15:36:07;19.40;;;16.37;;
10166;SDS011;62970;53.130;8.244;2024-02-28T15:38:36;21.43;;;17.27;;
10166;SDS011;62970;53.130;8.244;2024-02-28T15:41:08;22.23;;;17.77;;
10166;SDS011;62970;53.130;8.244;2024-02-28T15:43:38;24.03;;;17.70;;
10166;SDS011;62970;53.130;8.244;2024-02-28T15:46:09;21.77;;;17.83;;
10166;SDS011;62970;53.130;8.244;2024-02-28T15:48:40;24.97;;;18.77;;
10166;SDS011;62970;53.130;8.244;2024-02-28T15:51:09;22.57;;;17.13;;
10166;SDS011;62970;53.130;8.244;2024-02-28T15:53:39;21.50;;;17.03;;
10166;SDS011;62970;53.130;8.244;2024-02-28T15:56:11;23.27;;;18.27;;
10166;SDS011;62970;53.130;8.244;2024-02-28T15:58:40;23.77;;;18.93;;
10166;SDS011;62970;53.130;8.244;2024-02-28T16:01:10;26.10;;;19.97;;
10166;SDS011;62970;53.130;8.244;2024-02-28T16:03:39;23.97;;;19.07;;
10166;SDS011;62970;53.130;8.244;2024-02-28T16:06:10;24.90;;;19.93;;
10166;SDS011;62970;53.130;8.244;2024-02-28T16:08:39;24.63;;;19.40;;
10166;SDS011;62970;53.130;8.244;2024-02-28T16:11:12;24.77;;;19.80;;
10166;SDS011;62970;53.130;8.244;2024-02-28T16:13:41;26.90;;;20.40;;
10166;SDS011;62970;53.130;8.244;2024-02-28T16:16:13;25.57;;;20.17;;
10166;SDS011;62970;53.130;8.244;2024-02-28T16:18:42;28.70;;;21.63;;
10166;SDS011;62970;53.130;8.244;2024-02-28T16:21:11;30.80;;;21.50;;
10166;SDS011;62970;53.130;8.244;2024-02-28T16:23:41;26.77;;;20.20;;
10166;SDS011;62970;53.130;8.244;2024-02-28T16:26:12;28.00;;;20.97;;
10166;SDS011;62970;53.130;8.244;2024-02-28T16:28:42;27.47;;;21.33;;
10166;SDS011;62970;53.130;8.244;2024-02-28T16:31:11;30.73;;;21.77;;
10166;SDS011;62970;53.130;8.244;2024-02-28T16:33:40;32.23;;;22.27;;
10166;SDS011;62970;53.130;8.244;2024-02-28T16:36:10;29.20;;;22.70;;
10166;SDS011;62970;53.130;8.244;2024-02-28T16:38:39;32.97;;;23.20;;
10166;SDS011;62970;53.130;8.244;2024-02-28T16:41:08;33.43;;;24.80;;
10166;SDS011;62970;53.130;8.244;2024-02-28T16:43:40;34.73;;;24.37;;
10166;SDS011;62970;53.130;8.244;2024-02-28T16:46:10;34.60;;;24.23;;
10166;SDS011;62970;53.130;8.244;2024-02-28T16:48:40;31.90;;;23.00;;
10166;SDS011;62970;53.130;8.244;2024-02-28T16:51:09;32.03;;;23.03;;
10166;SDS011;62970;53.130;8.244;2024-02-28T16:53:39;31.97;;;22.80;;
10166;SDS011;62970;53.130;8.244;2024-02-28T16:56:08;35.37;;;24.30;;
10166;SDS011;62970;53.130;8.244;2024-02-28T16:58:40;32.50;;;23.10;;
10166;SDS011;62970;53.130;8.244;2024-02-28T17:01:10;37.43;;;24.17;;
10166;SDS011;62970;53.130;8.244;2024-02-28T17:03:41;36.57;;;24.20;;
10166;SDS011;62970;53.130;8.244;2024-02-28T17:06:11;34.60;;;23.90;;
10166;SDS011;62970;53.130;8.244;2024-02-28T17:08:40;37.13;;;24.70;;
10166;SDS011;62970;53.130;8.244;2024-02-28T17:11:10;37.80;;;25.47;;
10166;SDS011;62970;53.130;8.244;2024-02-28T17:13:42;34.47;;;24.57;;
10166;SDS011;62970;53.130;8.244;2024-02-28T17:16:12;37.77;;;24.53;;
10166;SDS011;62970;53.130;8.244;2024-02-28T17:18:42;38.00;;;24.93;;
10166;SDS011;62970;53.130;8.244;2024-02-28T17:21:11;38.60;;;25.53;;
10166;SDS011;62970;53.130;8.244;2024-02-28T17:23:40;40.37;;;25.90;;
10166;SDS011;62970;53.130;8.244;2024-02-28T17:26:10;39.67;;;26.13;;
10166;SDS011;62970;53.130;8.244;2024-02-28T17:28:42;43.13;;;25.97;;
10166;SDS011;62970;53.130;8.244;2024-02-28T17:31:13;38.27;;;24.93;;
10166;SDS011;62970;53.130;8.244;2024-02-28T17:33:43;37.13;;;25.07;;
10166;SDS011;62970;53.130;8.244;2024-02-28T17:36:12;37.00;;;25.47;;
10166;SDS011;62970;53.130;8.244;2024-02-28T17:38:44;38.37;;;25.10;;
10166;SDS011;62970;53.130;8.244;2024-02-28T17:41:14;38.13;;;25.27;;
10166;SDS011;62970;53.130;8.244;2024-02-28T17:43:47;37.23;;;24.83;;
10166;SDS011;62970;53.130;8.244;2024-02-28T17:46:18;40.87;;;25.87;;
10166;SDS011;62970;53.130;8.244;2024-02-28T17:48:48;38.37;;;25.10;;
10166;SDS011;62970;53.130;8.244;2024-02-28T17:51:17;39.30;;;25.90;;
10166;SDS011;62970;53.130;8.244;2024-02-28T17:53:47;42.50;;;26.43;;
10166;SDS011;62970;53.130;8.244;2024-02-28T17:56:16;38.10;;;26.10;;
10166;SDS011;62970;53.130;8.244;2024-02-28T17:58:47;42.40;;;28.10;;
10166;SDS011;62970;53.130;8.244;2024-02-28T18:01:16;40.60;;;27.30;;
10166;SDS011;62970;53.130;8.244;2024-02-28T18:03:47;41.33;;;26.77;;
10166;SDS011;62970;53.130;8.244;2024-02-28T18:06:16;43.57;;;27.73;;
10166;SDS011;62970;53.130;8.244;2024-02-28T18:08:45;40.87;;;27.13;;
10166;SDS011;62970;53.130;8.244;2024-02-28T18:11:15;42.43;;;26.57;;
10166;SDS011;62970;53.130;8.244;2024-02-28T18:13:54;42.27;;;27.17;;
10166;SDS011;62970;53.130;8.244;2024-02-28T18:16:24;40.93;;;26.40;;
10166;SDS011;62970;53.130;8.244;2024-02-28T18:18:53;38.13;;;24.83;;
10166;SDS011;62970;53.130;8.244;2024-02-28T18:21:22;41.97;;;26.90;;
10166;SDS011;62970;53.130;8.244;2024-02-28T18:23:51;42.50;;;27.70;;
10166;SDS011;62970;53.130;8.244;2024-02-28T18:26:20;42.53;;;27.63;;
10166;SDS011;62970;53.130;8.244;2024-02-28T18:28:50;40.20;;;27.37;;
10166;SDS011;62970;53.130;8.244;2024-02-28T18:31:22;41.80;;;27.50;;
10166;SDS011;62970;53.130;8.244;2024-02-28T18:33:51;37.27;;;25.63;;
10166;SDS011;62970;53.130;8.244;2024-02-28T18:36:21;41.53;;;27.23;;
10166;SDS011;62970;53.130;8.244;2024-02-28T18:38:51;38.30;;;26.50;;
10166;SDS011;62970;53.130;8.244;2024-02-28T18:41:22;40.33;;;27.10;;
10166;SDS011;62970;53.130;8.244;2024-02-28T18:43:51;41.37;;;26.83;;
10166;SDS011;62970;53.130;8.244;2024-02-28T18:46:22;40.07;;;26.13;;
10166;SDS011;62970;53.130;8.244;2024-02-28T18:48:52;37.00;;;24.43;;
10166;SDS011;62970;53.130;8.244;2024-02-28T18:51:21;38.90;;;25.33;;
10166;SDS011;62970;53.130;8.244;2024-02-28T18:53:50;37.80;;;25.30;;
10166;SDS011;62970;53.130;8.244;2024-02-28T18:56:19;37.83;;;26.37;;
10166;SDS011;62970;53.130;8.244;2024-02-28T18:58:46;38.03;;;25.53;;
10166;SDS011;62970;53.130;8.244;2024-02-28T19:01:18;40.97;;;25.70;;
10166;SDS011;62970;53.130;8.244;2024-02-28T19:03:48;36.57;;;25.30;;
10166;SDS011;62970;53.130;8.244;2024-02-28T19:06:18;36.67;;;24.87;;
10166;SDS011;62970;53.130;8.244;2024-02-28T19:08:49;38.03;;;26.23;;
10166;SDS011;62970;53.130;8.244;2024-02-28T19:11:19;36.47;;;24.90;;
10166;SDS011;62970;53.130;8.244;2024-02-28T19:13:50;40.13;;;26.10;;
10166;SDS011;62970;53.130;8.244;2024-02-28T19:16:22;35.80;;;25.37;;
10166;SDS011;62970;53.130;8.244;2024-02-28T19:18:54;42.63;;;27.37;;
10166;SDS011;62970;53.130;8.244;2024-02-28T19:21:24;41.90;;;27.70;;
10166;SDS011;62970;53.130;8.244;2024-02-28T19:23:53;41.93;;;27.37;;
10166;SDS011;62970;53.130;8.244;2024-02-28T19:26:23;44.13;;;27.53;;
10166;SDS011;62970;53.130;8.244;2024-02-28T19:28:52;42.33;;;27.80;;
10166;SDS011;62970;53.130;8.244;2024-02-28T19:31:24;42.60;;;27.17;;
10166;SDS011;62970;53.130;8.244;2024-02-28T19:33:53;40.80;;;26.80;;
10166;SDS011;62970;53.130;8.244;2024-02-28T19:36:23;42.30;;;28.13;;
10166;SDS011;62970;53.130;8.244;2024-02-28T19:38:52;40.50;;;26.97;;
10166;SDS011;62970;53.130;8.244;2024-02-28T19:41:23;42.97;;;28.97;;
10166;SDS011;62970;53.130;8.244;2024-02-28T19:43:52;43.83;;;28.20;;
10166;SDS011;62970;53.130;8.244;2024-02-28T19:46:24;45.47;;;28.63;;
10166;SDS011;62970;53.130;8.244;2024-02-28T19:48:56;45.27;;;29.17;;
10166;SDS011;62970;53.130;8.244;2024-02-28T19:51:25;49.93;;;30.70;;
10166;SDS011;62970;53.130;8.244;2024-02-28T19:53:54;47.63;;;30.33;;
10166;SDS011;62970;53.130;8.244;2024-02-28T19:56:24;49.77;;;31.77;;
10166;SDS011;62970;53.130;8.244;2024-02-28T19:58:54;53.43;;;31.60;;
10166;SDS011;62970;53.130;8.244;2024-02-28T20:01:26;48.60;;;30.30;;
10166;SDS011;62970;53.130;8.244;2024-02-28T20:03:57;56.00;;;33.03;;
10166;SDS011;62970;53.130;8.244;2024-02-28T20:06:27;55.10;;;34.13;;
10166;SDS011;62970;53.130;8.244;2024-02-28T20:08:58;46.50;;;31.10;;
10166;SDS011;62970;53.130;8.244;2024-02-28T20:11:32;55.63;;;34.90;;
10166;SDS011;62970;53.130;8.244;2024-02-28T20:14:01;60.83;;;37.67;;
10166;SDS011;62970;53.130;8.244;2024-02-28T20:16:36;51.77;;;32.90;;
10166;SDS011;62970;53.130;8.244;2024-02-28T20:19:07;55.23;;;34.00;;
10166;SDS011;62970;53.130;8.244;2024-02-28T20:21:37;53.40;;;31.63;;
10166;SDS011;62970;53.130;8.244;2024-02-28T20:24:07;49.57;;;31.70;;
10166;SDS011;62970;53.130;8.244;2024-02-28T20:26:37;49.30;;;30.70;;
10166;SDS011;62970;53.130;8.244;2024-02-28T20:29:06;51.93;;;31.27;;
10166;SDS011;62970;53.130;8.244;2024-02-28T20:31:38;50.13;;;30.77;;
10166;SDS011;62970;53.130;8.244;2024-02-28T20:34:07;57.13;;;32.23;;
10166;SDS011;62970;53.130;8.244;2024-02-28T20:36:36;49.43;;;30.60;;
10166;SDS011;62970;53.130;8.244;2024-02-28T20:39:08;49.93;;;32.40;;
10166;SDS011;62970;53.130;8.244;2024-02-28T20:41:38;53.43;;;31.17;;
10166;SDS011;62970;53.130;8.244;2024-02-28T20:44:09;47.17;;;29.97;;
10166;SDS011;62970;53.130;8.244;2024-02-28T20:46:41;47.83;;;29.63;;
10166;SDS011;62970;53.130;8.244;2024-02-28T20:49:10;47.47;;;28.93;;
10166;SDS011;62970;53.130;8.244;2024-02-28T20:51:39;49.60;;;28.90;;
10166;SDS011;62970;53.130;8.244;2024-02-28T20:54:09;51.07;;;29.83;;
10166;SDS011;62970;53.130;8.244;2024-02-28T20:56:38;49.87;;;28.67;;
10166;SDS011;62970;53.130;8.244;2024-02-28T20:59:08;47.67;;;29.13;;
10166;SDS011;62970;53.130;8.244;2024-02-28T21:01:37;48.40;;;29.40;;
10166;SDS011;62970;53.130;8.244;2024-02-28T21:04:10;48.40;;;28.40;;
10166;SDS011;62970;53.130;8.244;2024-02-28T21:06:39;46.77;;;29.73;;
10166;SDS011;62970;53.130;8.244;2024-02-28T21:09:09;48.97;;;29.33;;
10166;SDS011;62970;53.130;8.244;2024-02-28T21:11:38;48.60;;;27.90;;
10166;SDS011;62970;53.130;8.244;2024-02-28T21:14:07;46.77;;;28.67;;
10166;SDS011;62970;53.130;8.244;2024-02-28T21:16:37;49.17;;;28.67;;
10166;SDS011;62970;53.130;8.244;2024-02-28T21:19:12;49.37;;;30.10;;
10166;SDS011;62970;53.130;8.244;2024-02-28T21:21:41;49.03;;;29.60;;
10166;SDS011;62970;53.130;8.244;2024-02-28T21:24:11;47.63;;;29.50;;
10166;SDS011;62970;53.130;8.244;2024-02-28T21:26:40;46.07;;;28.70;;
10166;SDS011;62970;53.130;8.244;2024-02-28T21:29:10;47.73;;;30.30;;
10166;SDS011;62970;53.130;8.244;2024-02-28T21:31:39;49.33;;;29.80;;
10166;SDS011;62970;53.130;8.244;2024-02-28T21:34:12;51.67;;;30.10;;
10166;SDS011;62970;53.130;8.244;2024-02-28T21:36:41;50.90;;;30.37;;
10166;SDS011;62970;53.130;8.244;2024-02-28T21:39:10;52.33;;;32.07;;
10166;SDS011;62970;53.130;8.244;2024-02-28T21:41:40;49.40;;;29.73;;
10166;SDS011;62970;53.130;8.244;2024-02-28T21:44:09;51.27;;;30.70;;
10166;SDS011;62970;53.130;8.244;2024-02-28T21:46:39;52.03;;;31.23;;
10166;SDS011;62970;53.130;8.244;2024-02-28T21:49:14;49.00;;;31.03;;
10166;SDS011;62970;53.130;8.244;2024-02-28T21:51:43;52.57;;;31.50;;
10166;SDS011;62970;53.130;8.244;2024-02-28T21:54:13;48.20;;;30.53;;
10166;SDS011;62970;53.130;8.244;2024-02-28T21:56:42;52.07;;;30.17;;
10166;SDS011;62970;53.130;8.244;2024-02-28T21:59:11;48.27;;;30.67;;
10166;SDS011;62970;53.130;8.244;2024-02-28T22:01:40;52.00;;;30.57;;
10166;SDS011;62970;53.130;8.244;2024-02-28T22:04:12;48.43;;;30.30;;
10166;SDS011;62970;53.130;8.244;2024-02-28T22:06:41;49.67;;;30.63;;
10166;SDS011;62970;53.130;8.244;2024-02-28T22:09:10;50.93;;;30.80;;
10166;SDS011;62970;53.130;8.244;2024-02-28T22:11:40;49.33;;;30.10;;
10166;SDS011;62970;53.130;8.244;2024-02-28T22:14:09;47.60;;;29.27;;
10166;SDS011;62970;53.130;8.244;2024-02-28T22:16:38;51.17;;;31.57;;
10166;SDS011;62970;53.130;8.244;2024-02-28T22:19:08;53.17;;;31.33;;
10166;SDS011;62970;53.130;8.244;2024-02-28T22:21:41;51.50;;;30.60;;
10166;SDS011;62970;53.130;8.244;2024-02-28T22:24:10;50.07;;;31.73;;
10166;SDS011;62970;53.130;8.244;2024-02-28T22:26:39;51.43;;;31.30;;
10166;SDS011;62970;53.130;8.244;2024-02-28T22:29:09;48.17;;;30.00;;
10166;SDS011;62970;53.130;8.244;2024-02-28T22:31:35;46.33;;;29.27;;
10166;SDS011;62970;53.130;8.244;2024-02-28T22:34:05;48.93;;;30.40;;
10166;SDS011;62970;53.130;8.244;2024-02-28T22:36:34;50.03;;;30.10;;
10166;SDS011;62970;53.130;8.244;2024-02-28T22:39:06;46.83;;;29.03;;
10166;SDS011;62970;53.130;8.244;2024-02-28T22:41:35;49.47;;;29.50;;
10166;SDS011;62970;53.130;8.244;2024-02-28T22:44:04;48.20;;;30.63;;
10166;SDS011;62970;53.130;8.244;2024-02-28T22:46:33;46.07;;;30.63;;
10166;SDS011;62970;53.130;8.244;2024-02-28T22:49:02;49.13;;;30.13;;
10166;SDS011;62970;53.130;8.244;2024-02-28T22:51:32;48.33;;;30.43;;
10166;SDS011;62970;53.130;8.244;2024-02-28T22:54:02;49.53;;;31.20;;
10166;SDS011;62970;53.130;8.244;2024-02-28T22:56:39;44.53;;;28.47;;
10166;SDS011;62970;53.130;8.244;2024-02-28T22:59:09;47.03;;;29.93;;
10166;SDS011;62970;53.130;8.244;2024-02-28T23:01:38;47.63;;;29.53;;
10166;SDS011;62970;53.130;8.244;2024-02-28T23:04:08;45.70;;;28.50;;
10166;SDS011;62970;53.130;8.244;2024-02-28T23:06:37;43.93;;;27.50;;
10166;SDS011;62970;53.130;8.244;2024-02-28T23:09:10;45.20;;;27.97;;
10166;SDS011;62970;53.130;8.244;2024-02-28T23:11:39;46.73;;;28.47;;
10166;SDS011;62970;53.130;8.244;2024-02-28T23:14:09;44.30;;;28.23;;
10166;SDS011;62970;53.130;8.244;2024-02-28T23:16:39;47.30;;;28.60;;
10166;SDS011;62970;53.130;8.244;2024-02-28T23:19:08;45.57;;;28.60;;
10166;SDS011;62970;53.130;8.244;2024-02-28T23:21:38;47.30;;;29.13;;
10166;SDS011;62970;53.130;8.244;2024-02-28T23:24:11;47.60;;;29.43;;
10166;SDS011;62970;53.130;8.244;2024-02-28T23:26:40;43.00;;;28.60;;
10166;SDS011;62970;53.130;8.244;2024-02-28T23:29:09;41.57;;;27.40;;
10166;SDS011;62970;53.130;8.244;2024-02-28T23:31:39;42.07;;;27.80;;
10166;SDS011;62970;53.130;8.244;2024-02-28T23:34:09;44.37;;;28.03;;
10166;SDS011;62970;53.130;8.244;2024-02-28T23:36:38;40.93;;;27.40;;
10166;SDS011;62970;53.130;8.244;2024-02-28T23:39:07;43.97;;;28.23;;
10166;SDS011;62970;53.130;8.244;2024-02-28T23:41:38;42.57;;;27.33;;
10166;SDS011;62970;53.130;8.244;2024-02-28T23:44:09;41.97;;;27.37;;
10166;SDS011;62970;53.130;8.244;2024-02-28T23:46:38;40.43;;;26.47;;
10166;SDS011;62970;53.130;8.244;2024-02-28T23:49:07;41.60;;;27.37;;
10166;SDS011;62970;53.130;8.244;2024-02-28T23:51:37;41.97;;;27.57;;
10166;SDS011;62970;53.130;8.244;2024-02-28T23:54:06;41.50;;;27.23;;
10166;SDS011;62970;53.130;8.244;2024-02-28T23:56:35;42.37;;;28.13;;
10166;SDS011;62970;53.130;8.244;2024-02-28T23:59:07;43.20;;;28.30;;
